Time;durP1;ratioP1;P1;durP2;ratioP2;P2;SDS_P1;SDS_P2;PMS_P1;PMS_P2;Temp;Humidity;BMP_temperature;BMP_pressure;BME280_temperature;BME280_humidity;BME280_pressure;Samples;Min_cycle;Max_cycle;Signal;HPM_P1;HPM_P2
2023/04/22 00:02:22;;;;;;;1.27;1.00;;;18.20;62.00;;;;;;5070661;28;20189;-46
2023/04/22 00:04:52;;;;;;;1.17;1.00;;;18.30;62.10;;;;;;5070064;28;20198;-46
2023/04/22 00:07:39;;;;;;;1.17;1.07;;;18.30;62.10;;;;;;5075412;28;20189;-46
2023/04/22 00:10:11;;;;;;;1.13;1.03;;;18.20;62.10;;;;;;5053110;28;20611;-46
2023/04/22 00:12:39;;;;;;;1.10;1.00;;;18.30;62.10;;;;;;5046676;28;20822;-45
2023/04/22 00:15:11;;;;;;;1.10;1.00;;;18.20;62.00;;;;;;5065976;28;20212;-45
2023/04/22 00:17:42;;;;;;;1.23;1.17;;;18.20;62.00;;;;;;5067649;28;20201;-45
2023/04/22 00:20:14;;;;;;;1.03;1.03;;;18.20;62.00;;;;;;5068675;28;20217;-46
2023/04/22 00:22:45;;;;;;;1.70;1.20;;;18.20;61.90;;;;;;5069938;28;20769;-45
2023/04/22 00:25:16;;;;;;;1.60;1.23;;;18.20;62.00;;;;;;5066342;28;20226;-45
2023/04/22 00:27:47;;;;;;;1.10;1.00;;;18.20;61.90;;;;;;5078494;28;20194;-45
2023/04/22 00:30:18;;;;;;;1.20;1.10;;;18.20;61.90;;;;;;5070922;28;20204;-46
2023/04/22 00:32:48;;;;;;;1.30;1.20;;;18.20;61.90;;;;;;5084720;28;20643;-46
2023/04/22 00:35:18;;;;;;;1.10;1.00;;;18.20;61.80;;;;;;5046336;28;20253;-45
2023/04/22 00:37:50;;;;;;;1.70;1.20;;;18.20;61.90;;;;;;5053101;28;20194;-45
2023/04/22 00:40:21;;;;;;;1.67;0.93;;;18.20;61.90;;;;;;5069710;28;20693;-46
2023/04/22 00:42:50;;;;;;;1.00;0.90;;;18.20;61.80;;;;;;5072293;28;20243;-46
2023/04/22 00:45:18;;;;;;;1.57;1.47;;;18.20;61.80;;;;;;5066884;28;20289;-46
2023/04/22 00:47:57;;;;;;;1.00;0.90;;;18.10;61.70;;;;;;5049516;28;20216;-46
2023/04/22 00:50:29;;;;;;;1.10;1.00;;;18.10;61.80;;;;;;5068164;28;20193;-46
2023/04/22 00:52:59;;;;;;;1.17;0.90;;;18.10;61.70;;;;;;5064314;28;20217;-45
2023/04/22 00:55:26;;;;;;;1.00;0.90;;;18.10;61.80;;;;;;5068846;28;20246;-46
2023/04/22 00:58:00;;;;;;;1.43;1.00;;;18.10;61.70;;;;;;5034733;28;20193;-46
2023/04/22 01:00:31;;;;;;;1.17;1.07;;;18.10;61.60;;;;;;5035855;28;20229;-46
2023/04/22 01:02:59;;;;;;;1.43;1.00;;;18.10;61.60;;;;;;5065562;28;20750;-46
2023/04/22 01:05:31;;;;;;;1.20;1.10;;;18.10;61.70;;;;;;5068319;28;20186;-46
2023/04/22 01:07:59;;;;;;;1.20;1.10;;;18.10;61.60;;;;;;5049616;28;20701;-46
2023/04/22 01:10:31;;;;;;;1.07;1.00;;;18.10;61.60;;;;;;5058146;28;20201;-46
2023/04/22 01:13:01;;;;;;;1.40;1.30;;;18.10;61.60;;;;;;5077986;28;20547;-46
2023/04/22 01:15:31;;;;;;;1.10;1.00;;;18.00;61.40;;;;;;5087678;28;20219;-46
2023/04/22 01:18:01;;;;;;;1.00;0.87;;;18.00;61.50;;;;;;5072019;28;20211;-46
2023/04/22 01:20:32;;;;;;;1.00;0.93;;;18.00;61.60;;;;;;5071226;28;20213;-45
2023/04/22 01:23:08;;;;;;;1.30;1.20;;;18.00;61.50;;;;;;5063479;28;21459;-45
2023/04/22 01:25:48;;;;;;;1.27;1.10;;;18.00;61.40;;;;;;5070939;28;20717;-45
2023/04/22 01:28:24;;;;;;;0.80;0.80;;;18.00;61.50;;;;;;5055590;28;20181;-46
2023/04/22 01:30:56;;;;;;;1.33;0.90;;;18.00;61.50;;;;;;5049116;28;20538;-45
2023/04/22 01:33:25;;;;;;;1.10;1.00;;;18.00;61.50;;;;;;5070620;28;20338;-46
2023/04/22 01:36:04;;;;;;;1.30;1.20;;;18.00;61.50;;;;;;5066073;28;20206;-45
2023/04/22 01:38:40;;;;;;;0.90;0.90;;;18.00;61.50;;;;;;5053606;28;20272;-46
2023/04/22 01:41:09;;;;;;;1.30;1.07;;;18.00;61.50;;;;;;5048791;28;20214;-45
2023/04/22 01:43:41;;;;;;;1.20;1.10;;;18.00;61.50;;;;;;5050941;28;20197;-46
2023/04/22 01:46:10;;;;;;;0.83;0.83;;;17.90;61.30;;;;;;5049135;28;20206;-46
2023/04/22 01:48:39;;;;;;;1.70;0.80;;;18.00;61.50;;;;;;5061314;28;20631;-46
2023/04/22 01:51:09;;;;;;;1.20;1.10;;;18.00;61.40;;;;;;5069573;28;20701;-45
2023/04/22 01:53:41;;;;;;;1.47;1.13;;;18.00;61.40;;;;;;5051776;28;20578;-45
2023/04/22 01:56:11;;;;;;;1.03;1.00;;;18.00;61.40;;;;;;5062244;28;20193;-46
2023/04/22 01:58:43;;;;;;;1.30;1.20;;;17.90;61.30;;;;;;5068227;28;20190;-46
2023/04/22 02:01:15;;;;;;;0.97;0.97;;;18.00;61.40;;;;;;5076887;28;20220;-46
2023/04/22 02:03:44;;;;;;;1.30;0.83;;;17.90;61.30;;;;;;5068206;28;20201;-46
2023/04/22 02:06:16;;;;;;;1.60;1.00;;;17.90;61.40;;;;;;5066939;28;20211;-46
2023/04/22 02:08:53;;;;;;;0.67;0.67;;;17.90;61.30;;;;;;5071126;28;20190;-47
2023/04/22 02:11:24;;;;;;;1.20;1.10;;;17.90;61.30;;;;;;5071140;28;20213;-45
2023/04/22 02:13:55;;;;;;;1.10;1.00;;;17.90;61.30;;;;;;5071661;28;20197;-46
2023/04/22 02:16:24;;;;;;;1.10;1.00;;;17.90;61.20;;;;;;5084909;28;20642;-46
2023/04/22 02:18:55;;;;;;;2.40;0.93;;;17.90;61.30;;;;;;5069252;28;20196;-45
2023/04/22 02:21:24;;;;;;;1.07;0.97;;;17.90;61.30;;;;;;5071165;28;20214;-46
2023/04/22 02:23:55;;;;;;;1.07;0.97;;;17.90;61.20;;;;;;5067685;28;20204;-46
2023/04/22 02:26:27;;;;;;;1.23;1.10;;;17.90;61.20;;;;;;5070561;28;20205;-46
2023/04/22 02:28:56;;;;;;;1.40;0.90;;;17.80;61.30;;;;;;5056261;28;20185;-45
2023/04/22 02:31:26;;;;;;;0.97;0.90;;;17.90;61.30;;;;;;5082745;28;20216;-46
2023/04/22 02:34:00;;;;;;;1.30;1.03;;;17.90;61.30;;;;;;5054375;28;20245;-45
2023/04/22 02:36:28;;;;;;;1.10;1.10;;;17.90;61.30;;;;;;5029736;28;20297;-46
2023/04/22 02:39:04;;;;;;;1.20;1.10;;;17.90;61.20;;;;;;5064302;28;20559;-46
2023/04/22 02:41:32;;;;;;;1.00;1.00;;;17.90;61.20;;;;;;5034621;28;20300;-46
2023/04/22 02:44:02;;;;;;;1.23;1.13;;;17.90;61.20;;;;;;5066045;28;20190;-45
2023/04/22 02:46:35;;;;;;;1.23;1.13;;;17.80;61.10;;;;;;5061999;28;20404;-46
2023/04/22 02:49:06;;;;;;;1.60;1.13;;;17.80;61.10;;;;;;5051366;28;20210;-46
2023/04/22 02:51:39;;;;;;;1.40;1.30;;;17.80;61.10;;;;;;5064866;28;20210;-45
2023/04/22 02:54:10;;;;;;;1.17;0.90;;;17.80;61.10;;;;;;5033142;28;20205;-46
2023/04/22 02:56:41;;;;;;;1.47;1.37;;;17.80;61.00;;;;;;5061819;28;20286;-46
2023/04/22 02:59:11;;;;;;;1.50;1.40;;;17.80;61.00;;;;;;5053845;28;20570;-45
2023/04/22 03:01:42;;;;;;;1.47;1.00;;;17.80;61.00;;;;;;5048780;28;20212;-45
2023/04/22 03:04:14;;;;;;;1.47;1.30;;;17.80;61.00;;;;;;5036036;28;20232;-45
2023/04/22 03:06:56;;;;;;;1.30;1.10;;;17.80;61.00;;;;;;5033474;28;20260;-46
2023/04/22 03:09:27;;;;;;;1.47;1.30;;;17.80;61.00;;;;;;5050286;28;20512;-46
2023/04/22 03:11:57;;;;;;;1.57;1.27;;;17.80;61.20;;;;;;5051430;28;20198;-46
2023/04/22 03:14:29;;;;;;;2.10;1.40;;;17.80;61.30;;;;;;5051181;28;20201;-45
2023/04/22 03:17:00;;;;;;;1.93;1.30;;;17.80;61.20;;;;;;5059326;28;20236;-45
2023/04/22 03:19:32;;;;;;;1.93;1.30;;;17.80;61.10;;;;;;5046182;28;20198;-46
2023/04/22 03:22:02;;;;;;;1.07;0.97;;;17.80;61.30;;;;;;5051267;28;20226;-46
2023/04/22 03:24:34;;;;;;;1.70;1.10;;;17.80;61.20;;;;;;5025930;28;20210;-45
2023/04/22 03:27:05;;;;;;;1.10;1.00;;;17.80;61.20;;;;;;5048708;28;20191;-46
2023/04/22 03:29:37;;;;;;;1.90;1.40;;;17.80;61.20;;;;;;5054547;28;20209;-45
2023/04/22 03:32:07;;;;;;;1.50;1.10;;;17.80;61.20;;;;;;5057332;28;20259;-46
2023/04/22 03:34:37;;;;;;;2.53;1.10;;;17.80;61.10;;;;;;5078384;28;20264;-45
2023/04/22 03:37:08;;;;;;;1.73;1.10;;;17.70;61.10;;;;;;5073221;28;20318;-45
2023/04/22 03:39:38;;;;;;;2.23;1.60;;;17.80;61.20;;;;;;5076927;28;20216;-46
2023/04/22 03:42:10;;;;;;;1.67;1.40;;;17.80;61.10;;;;;;5082151;28;20220;-46
2023/04/22 03:44:39;;;;;;;1.27;1.10;;;17.70;61.10;;;;;;5061812;28;20640;-46
2023/04/22 03:47:11;;;;;;;1.70;1.20;;;17.80;61.10;;;;;;5082577;28;20204;-45
2023/04/22 03:49:41;;;;;;;1.10;1.00;;;17.80;61.10;;;;;;5080377;28;20201;-46
2023/04/22 03:52:16;;;;;;;1.40;1.30;;;17.80;61.10;;;;;;5075705;28;20272;-46
2023/04/22 03:54:46;;;;;;;1.37;1.27;;;17.70;61.10;;;;;;5072601;28;20208;-46
2023/04/22 03:57:15;;;;;;;2.07;1.60;;;17.80;61.10;;;;;;5070652;28;20201;-45
2023/04/22 03:59:46;;;;;;;1.90;1.40;;;17.80;61.00;;;;;;5049605;28;20217;-46
2023/04/22 04:02:16;;;;;;;1.30;1.20;;;17.70;61.00;;;;;;5069501;28;20225;-46
2023/04/22 04:04:45;;;;;;;1.77;1.20;;;17.70;61.00;;;;;;5074075;28;20193;-46
2023/04/22 04:07:15;;;;;;;1.50;1.00;;;17.70;61.00;;;;;;5074463;28;20250;-45
2023/04/22 04:09:48;;;;;;;1.40;1.30;;;17.70;60.90;;;;;;5064751;28;20251;-46
2023/04/22 04:12:19;;;;;;;1.80;1.30;;;17.70;61.00;;;;;;5067840;28;20377;-46
2023/04/22 04:14:51;;;;;;;2.23;1.23;;;17.70;60.90;;;;;;5070271;28;20267;-46
2023/04/22 04:17:24;;;;;;;1.40;1.20;;;17.70;60.90;;;;;;5069389;28;20197;-46
2023/04/22 04:19:57;;;;;;;4.40;1.40;;;17.80;61.10;;;;;;5074420;28;20198;-46
2023/04/22 04:22:29;;;;;;;1.67;1.17;;;17.70;60.90;;;;;;5073605;28;20223;-45
2023/04/22 04:25:00;;;;;;;1.77;1.30;;;17.70;60.90;;;;;;5068025;28;20296;-45
2023/04/22 04:27:29;;;;;;;1.60;1.30;;;17.70;60.90;;;;;;5068982;28;20186;-45
2023/04/22 04:30:03;;;;;;;2.13;1.00;;;17.70;60.90;;;;;;5084562;28;20532;-45
2023/04/22 04:32:36;;;;;;;1.30;1.20;;;17.70;60.90;;;;;;5080152;28;20276;-46
2023/04/22 04:35:07;;;;;;;1.47;1.37;;;17.80;61.00;;;;;;5067721;28;20257;-46
2023/04/22 04:37:41;;;;;;;1.70;1.60;;;17.70;60.90;;;;;;5065443;28;20204;-46
2023/04/22 04:40:13;;;;;;;1.47;1.37;;;17.70;60.90;;;;;;5064950;28;20188;-45
2023/04/22 04:42:44;;;;;;;1.50;1.30;;;17.70;60.80;;;;;;5069961;28;20205;-45
2023/04/22 04:45:15;;;;;;;1.50;1.40;;;17.70;60.80;;;;;;5066457;28;20217;-45
2023/04/22 04:47:49;;;;;;;1.30;1.20;;;17.70;61.50;;;;;;5067988;28;20658;-45
2023/04/22 04:50:21;;;;;;;1.73;1.17;;;17.70;60.70;;;;;;5070921;28;20201;-45
2023/04/22 04:52:53;;;;;;;1.70;1.27;;;17.70;60.70;;;;;;5073651;28;20194;-45
2023/04/22 04:55:25;;;;;;;1.40;1.10;;;17.70;60.60;;;;;;5083308;28;20185;-45
2023/04/22 04:57:55;;;;;;;1.27;1.17;;;17.70;60.60;;;;;;5088596;28;20223;-45
2023/04/22 05:00:24;;;;;;;1.57;1.10;;;17.70;60.50;;;;;;5072848;28;20205;-45
2023/04/22 05:02:53;;;;;;;1.83;1.43;;;17.70;60.50;;;;;;5077329;28;20190;-45
2023/04/22 05:05:22;;;;;;;1.47;1.10;;;17.70;60.50;;;;;;5074284;28;20603;-45
2023/04/22 05:07:52;;;;;;;2.10;1.97;;;17.70;60.50;;;;;;5079871;28;20631;-46
2023/04/22 05:10:24;;;;;;;1.47;1.37;;;17.70;60.40;;;;;;5052403;28;20520;-45
2023/04/22 05:12:55;;;;;;;2.33;1.63;;;17.70;60.40;;;;;;5064107;28;20237;-45
2023/04/22 05:15:24;;;;;;;1.33;1.23;;;17.70;60.40;;;;;;5069862;28;20201;-46
2023/04/22 05:17:55;;;;;;;2.30;1.70;;;17.70;61.00;;;;;;5069002;28;20178;-45
2023/04/22 05:20:27;;;;;;;1.70;1.53;;;17.60;60.30;;;;;;5073988;28;20186;-46
2023/04/22 05:23:01;;;;;;;1.83;1.50;;;17.70;60.30;;;;;;5063934;28;20197;-45
2023/04/22 05:25:31;;;;;;;1.70;1.60;;;17.70;60.30;;;;;;5069473;28;20202;-46
2023/04/22 05:28:02;;;;;;;1.60;1.50;;;17.70;60.20;;;;;;5056203;28;20188;-46
2023/04/22 05:30:33;;;;;;;1.30;1.20;;;17.60;60.20;;;;;;5065012;28;20229;-46
2023/04/22 05:33:03;;;;;;;2.10;1.70;;;17.70;60.20;;;;;;5056282;28;20213;-46
2023/04/22 05:35:37;;;;;;;1.60;1.50;;;17.70;60.80;;;;;;5041954;28;20239;-46
2023/04/22 05:38:17;;;;;;;2.07;1.77;;;17.70;60.20;;;;;;5067218;28;20246;-45
2023/04/22 05:40:48;;;;;;;1.27;1.17;;;17.60;60.70;;;;;;5070207;28;20214;-46
2023/04/22 05:43:19;;;;;;;2.03;1.83;;;17.60;60.10;;;;;;5072706;28;20521;-46
2023/04/22 05:45:49;;;;;;;2.13;1.93;;;17.70;60.10;;;;;;5072997;28;20205;-46
2023/04/22 05:48:19;;;;;;;2.10;1.60;;;17.70;60.10;;;;;;5056973;28;20197;-46
2023/04/22 05:50:50;;;;;;;1.70;1.50;;;17.70;60.10;;;;;;5072772;28;20189;-46
2023/04/22 05:53:20;;;;;;;2.63;1.63;;;17.60;60.00;;;;;;5072090;28;20198;-46
2023/04/22 05:55:48;;;;;;;2.07;1.87;;;17.60;60.00;;;;;;5071238;28;20212;-46
2023/04/22 05:58:20;;;;;;;1.80;1.70;;;17.70;60.00;;;;;;5072742;28;20204;-46
2023/04/22 06:00:49;;;;;;;1.93;1.77;;;17.70;60.00;;;;;;5069474;28;20225;-46
2023/04/22 06:03:18;;;;;;;1.90;1.70;;;17.60;60.00;;;;;;5072013;28;20186;-45
2023/04/22 06:05:50;;;;;;;1.63;1.50;;;17.60;60.00;;;;;;5072357;28;20712;-46
2023/04/22 06:08:20;;;;;;;2.90;2.00;;;17.60;60.60;;;;;;5054466;28;20202;-46
2023/04/22 06:10:49;;;;;;;2.43;1.63;;;17.60;60.10;;;;;;5072582;28;20202;-46
2023/04/22 06:13:18;;;;;;;2.70;2.17;;;17.60;60.00;;;;;;5050931;28;20229;-46
2023/04/22 06:15:50;;;;;;;2.50;1.80;;;17.70;60.00;;;;;;5072048;28;20619;-46
2023/04/22 06:18:20;;;;;;;2.13;1.93;;;17.60;60.10;;;;;;5072352;28;20178;-46
2023/04/22 06:20:54;;;;;;;4.23;2.00;;;17.70;60.20;;;;;;5054794;28;20194;-45
2023/04/22 06:23:37;;;;;;;2.80;1.90;;;17.60;60.20;;;;;;5066239;28;20245;-46
2023/04/22 06:26:08;;;;;;;3.30;2.00;;;17.70;60.50;;;;;;5072211;28;20189;-46
2023/04/22 06:28:38;;;;;;;2.37;2.17;;;17.60;60.70;;;;;;5072723;28;20230;-46
2023/04/22 06:31:10;;;;;;;4.73;2.30;;;17.70;61.00;;;;;;5058910;28;20202;-46
2023/04/22 06:33:42;;;;;;;3.20;2.60;;;17.60;60.70;;;;;;5074509;28;20248;-46
2023/04/22 06:36:13;;;;;;;3.80;2.97;;;17.60;60.70;;;;;;5062032;28;20220;-46
2023/04/22 06:38:43;;;;;;;3.23;2.47;;;17.70;60.80;;;;;;5083373;28;20196;-46
2023/04/22 06:41:14;;;;;;;4.23;3.10;;;17.60;60.70;;;;;;5077340;28;20612;-46
2023/04/22 06:44:09;;;;;;;4.80;3.30;;;17.70;60.70;;;;;;5057796;28;20202;-46
2023/04/22 06:46:39;;;;;;;5.70;3.87;;;17.60;60.70;;;;;;5074106;28;20207;-46
2023/04/22 06:49:10;;;;;;;4.87;3.27;;;17.70;60.70;;;;;;5084257;28;20802;-46
2023/04/22 06:51:40;;;;;;;3.87;3.50;;;17.70;60.70;;;;;;5077668;28;20332;-46
2023/04/22 06:54:09;;;;;;;4.70;3.87;;;17.60;60.60;;;;;;5086395;28;20197;-46
2023/04/22 06:56:40;;;;;;;4.83;3.60;;;17.70;60.70;;;;;;5077134;28;20196;-47
2023/04/22 06:59:09;;;;;;;4.13;3.73;;;17.70;60.70;;;;;;5085303;28;20197;-45
2023/04/22 07:01:38;;;;;;;6.93;4.80;;;17.70;60.60;;;;;;5050202;28;20225;-51
2023/04/22 07:04:08;;;;;;;4.27;3.63;;;17.70;60.60;;;;;;5075420;28;20181;-46
2023/04/22 07:06:41;;;;;;;6.27;4.43;;;17.70;60.60;;;;;;5072476;28;20214;-46
2023/04/22 07:09:11;;;;;;;5.77;4.23;;;17.70;60.70;;;;;;5077913;28;20525;-47
2023/04/22 07:11:42;;;;;;;5.83;4.60;;;17.70;60.70;;;;;;5064385;28;20213;-45
2023/04/22 07:14:13;;;;;;;4.93;3.57;;;17.70;60.70;;;;;;5083822;28;20197;-46
2023/04/22 07:16:43;;;;;;;133.17;36.73;;;17.70;60.50;;;;;;5088040;28;20193;-45
2023/04/22 07:19:15;;;;;;;124.13;33.70;;;17.70;60.60;;;;;;5077236;28;20193;-46
2023/04/22 07:21:53;;;;;;;134.00;36.00;;;17.70;61.00;;;;;;5067248;28;20224;-46
2023/04/22 07:24:24;;;;;;;125.90;34.70;;;17.70;61.10;;;;;;5065415;28;20221;-46
2023/04/22 07:26:54;;;;;;;113.03;31.57;;;17.70;61.90;;;;;;5065070;28;20206;-45
2023/04/22 07:29:23;;;;;;;110.77;30.40;;;17.70;61.20;;;;;;5068877;28;20190;-46
2023/04/22 07:31:52;;;;;;;95.47;28.00;;;17.70;61.10;;;;;;5080661;28;20197;-46
2023/04/22 07:34:23;;;;;;;88.93;26.63;;;17.80;60.80;;;;;;5036788;28;20225;-46
2023/04/22 07:36:52;;;;;;;88.40;26.40;;;17.70;60.80;;;;;;5069591;28;20217;-45
2023/04/22 07:39:26;;;;;;;87.13;24.97;;;17.70;60.70;;;;;;5057527;28;20642;-45
2023/04/22 07:41:56;;;;;;;86.87;23.60;;;17.80;60.80;;;;;;5070106;28;20233;-46
2023/04/22 07:44:23;;;;;;;69.47;21.30;;;17.80;60.70;;;;;;5070585;28;20198;-46
2023/04/22 07:46:55;;;;;;;56.90;19.53;;;17.80;60.60;;;;;;5065452;28;20204;-46
2023/04/22 07:49:26;;;;;;;56.30;19.57;;;17.80;60.60;;;;;;5069952;28;20589;-46
2023/04/22 07:51:57;;;;;;;56.07;18.57;;;17.80;60.70;;;;;;5075209;28;20210;-46
2023/04/22 07:54:28;;;;;;;57.20;17.57;;;17.80;60.60;;;;;;5069435;28;20194;-46
2023/04/22 07:56:58;;;;;;;46.63;15.43;;;17.80;60.60;;;;;;5069203;28;20561;-46
2023/04/22 07:59:27;;;;;;;46.03;15.37;;;17.80;60.60;;;;;;5067136;28;20221;-46
2023/04/22 08:01:59;;;;;;;39.00;13.77;;;17.80;60.50;;;;;;5069312;28;20224;-45
2023/04/22 08:04:29;;;;;;;40.60;13.93;;;17.80;60.50;;;;;;5069430;28;20190;-46
2023/04/22 08:07:02;;;;;;;34.67;13.00;;;17.90;60.50;;;;;;5079353;28;20192;-45
2023/04/22 08:09:52;;;;;;;41.13;12.67;;;17.80;60.40;;;;;;5076458;28;20198;-46
2023/04/22 08:12:22;;;;;;;33.67;12.60;;;17.80;60.50;;;;;;5059914;28;20209;-45
2023/04/22 08:14:56;;;;;;;31.83;11.20;;;17.80;60.50;;;;;;5071187;28;20201;-45
2023/04/22 08:17:31;;;;;;;27.70;10.60;;;17.80;60.50;;;;;;5077237;28;20532;-46
2023/04/22 08:20:00;;;;;;;28.27;11.30;;;17.80;60.50;;;;;;5082163;28;20209;-46
2023/04/22 08:22:30;;;;;;;26.73;10.50;;;17.90;60.60;;;;;;5052856;28;20225;-46
2023/04/22 08:25:07;;;;;;;23.97;9.17;;;17.90;60.60;;;;;;5065062;28;20192;-46
2023/04/22 08:27:37;;;;;;;24.00;9.10;;;17.90;60.60;;;;;;5073954;28;20267;-46
2023/04/22 08:30:11;;;;;;;24.23;8.83;;;17.90;60.60;;;;;;5078134;28;20196;-46
2023/04/22 08:32:41;;;;;;;17.97;8.27;;;17.90;60.60;;;;;;5063065;28;20205;-46
2023/04/22 08:35:12;;;;;;;21.97;8.87;;;17.90;60.70;;;;;;5062370;28;20439;-46
2023/04/22 08:37:42;;;;;;;16.80;7.37;;;17.90;60.70;;;;;;5083146;28;20193;-46
2023/04/22 08:40:14;;;;;;;19.60;7.63;;;17.90;60.70;;;;;;5073703;28;20201;-46
2023/04/22 08:42:47;;;;;;;14.63;7.30;;;17.90;60.80;;;;;;5084074;28;20217;-46
2023/04/22 08:45:18;;;;;;;17.60;6.67;;;18.00;60.80;;;;;;5091185;28;20238;-46
2023/04/22 08:47:49;;;;;;;12.77;6.27;;;17.90;60.90;;;;;;5070491;28;20198;-46
2023/04/22 08:50:23;;;;;;;14.87;6.73;;;18.00;61.60;;;;;;5072646;28;20672;-46
2023/04/22 08:52:52;;;;;;;14.63;5.90;;;17.90;61.00;;;;;;5081889;28;20197;-46
2023/04/22 08:55:23;;;;;;;15.83;6.33;;;18.00;61.00;;;;;;5078788;28;20205;-46
2023/04/22 08:57:54;;;;;;;14.37;5.70;;;18.00;61.10;;;;;;5064366;28;20213;-45
2023/04/22 09:00:24;;;;;;;14.33;5.27;;;18.00;61.10;;;;;;5062399;28;20662;-46
2023/04/22 09:02:59;;;;;;;10.33;5.13;;;18.00;61.10;;;;;;5043632;28;20205;-45
2023/04/22 09:05:32;;;;;;;11.47;5.03;;;18.00;61.10;;;;;;5073774;28;20201;-46
2023/04/22 09:08:04;;;;;;;10.97;4.93;;;18.00;61.10;;;;;;5070065;28;20200;-45
2023/04/22 09:10:38;;;;;;;11.60;4.77;;;18.00;61.30;;;;;;5064325;28;20193;-46
2023/04/22 09:13:17;;;;;;;10.07;5.33;;;18.00;61.50;;;;;;5082173;28;20198;-46
2023/04/22 09:15:47;;;;;;;10.27;4.50;;;18.00;61.40;;;;;;5084329;28;20201;-46
2023/04/22 09:18:18;;;;;;;10.03;4.83;;;18.00;61.30;;;;;;5056905;28;20205;-46
2023/04/22 09:20:48;;;;;;;8.20;4.00;;;18.10;61.30;;;;;;5075680;28;20201;-46
2023/04/22 09:23:21;;;;;;;7.60;4.10;;;18.10;61.40;;;;;;5051671;28;20813;-46
2023/04/22 09:25:56;;;;;;;7.17;3.73;;;18.10;61.40;;;;;;5073942;28;20538;-46
2023/04/22 09:28:25;;;;;;;9.23;4.30;;;18.10;61.20;;;;;;5056663;28;20647;-46
2023/04/22 09:30:54;;;;;;;6.90;3.67;;;18.10;61.20;;;;;;5054500;28;20228;-45
2023/04/22 09:33:25;;;;;;;8.57;3.83;;;18.10;61.20;;;;;;5072376;28;20575;-46
2023/04/22 09:36:07;;;;;;;4.43;3.43;;;18.10;61.10;;;;;;5036986;28;20230;-46
2023/04/22 09:38:38;;;;;;;7.77;3.20;;;18.20;61.30;;;;;;5036285;28;20612;-46
2023/04/22 09:41:11;;;;;;;7.37;3.20;;;18.10;61.10;;;;;;5047118;28;20251;-47
2023/04/22 09:43:43;;;;;;;5.47;3.13;;;18.20;61.30;;;;;;5052547;28;20214;-46
2023/04/22 09:46:16;;;;;;;8.17;3.73;;;18.20;61.00;;;;;;5054668;28;20198;-46
2023/04/22 09:48:52;;;;;;;4.93;3.40;;;18.20;61.10;;;;;;5030821;28;20210;-45
2023/04/22 09:51:21;;;;;;;5.53;3.20;;;18.20;61.20;;;;;;5053684;28;20202;-46
2023/04/22 09:54:08;;;;;;;5.03;2.93;;;18.20;61.10;;;;;;5054512;28;20543;-46
2023/04/22 09:56:54;;;;;;;6.60;3.00;;;18.20;61.10;;;;;;5050852;28;20619;-46
2023/04/22 09:59:27;;;;;;;4.97;3.00;;;18.30;61.10;;;;;;5051722;28;20223;-46
2023/04/22 10:02:02;;;;;;;4.30;2.70;;;18.30;60.90;;;;;;5054504;28;20264;-47
2023/04/22 10:04:42;;;;;;;4.67;2.63;;;18.30;61.00;;;;;;5037210;28;20187;-47
2023/04/22 10:07:14;;;;;;;4.00;2.63;;;18.30;61.10;;;;;;5048892;28;21016;-46
2023/04/22 10:09:43;;;;;;;5.27;2.80;;;18.30;61.00;;;;;;5062961;28;20218;-46
2023/04/22 10:12:14;;;;;;;3.50;2.53;;;18.30;61.10;;;;;;5048714;28;20229;-47
2023/04/22 10:14:56;;;;;;;4.73;2.80;;;18.30;60.90;;;;;;5042578;28;20210;-47
2023/04/22 10:17:23;;;;;;;3.70;2.80;;;18.30;60.90;;;;;;5051074;28;20202;-47
2023/04/22 10:19:55;;;;;;;3.73;2.87;;;18.30;61.10;;;;;;5042834;28;20205;-48
2023/04/22 10:22:23;;;;;;;4.40;2.63;;;18.40;61.30;;;;;;5066945;28;20214;-47
2023/04/22 10:24:56;;;;;;;2.83;2.40;;;18.40;61.10;;;;;;5042114;28;20577;-47
2023/04/22 10:27:25;;;;;;;4.27;2.30;;;18.40;61.10;;;;;;5051442;28;20267;-47
2023/04/22 10:29:56;;;;;;;3.77;2.67;;;18.40;61.10;;;;;;5066676;28;20224;-47
2023/04/22 10:32:27;;;;;;;2.97;2.20;;;18.40;61.30;;;;;;5066931;28;20209;-47
2023/04/22 10:35:12;;;;;;;3.33;2.53;;;18.40;61.30;;;;;;5053111;28;20346;-47
2023/04/22 10:37:42;;;;;;;3.83;3.00;;;18.40;61.30;;;;;;5070914;28;20274;-45
2023/04/22 10:40:23;;;;;;;3.60;2.90;;;18.50;61.50;;;;;;5070985;28;20243;-45
2023/04/22 10:43:02;;;;;;;2.80;2.50;;;18.50;61.50;;;;;;5070913;28;20225;-45
2023/04/22 10:46:10;;;;;;;4.70;2.20;;;18.50;61.70;;;;;;5065972;28;20193;-45
2023/04/22 10:48:49;;;;;;;3.33;2.50;;;18.50;61.70;;;;;;5059886;28;20222;-46
2023/04/22 10:51:57;;;;;;;3.00;2.60;;;18.50;61.80;;;;;;5071025;28;20213;-45
2023/04/22 10:54:35;;;;;;;4.30;2.67;;;18.60;61.60;;;;;;5009274;28;20223;-46
2023/04/22 10:57:18;;;;;;;3.27;2.90;;;18.50;61.70;;;;;;5068520;28;20205;-47
2023/04/22 10:59:57;;;;;;;3.10;2.63;;;18.60;61.80;;;;;;5093618;28;20654;-47
2023/04/22 11:02:40;;;;;;;3.20;2.63;;;18.60;61.80;;;;;;5081360;28;20226;-47
2023/04/22 11:05:34;;;;;;;2.83;2.63;;;18.60;61.80;;;;;;5088899;28;20189;-46
2023/04/22 11:08:10;;;;;;;4.87;2.80;;;18.60;61.80;;;;;;5089606;28;20219;-47
2023/04/22 11:10:46;;;;;;;2.77;2.57;;;18.60;61.90;;;;;;5069740;28;20201;-46
2023/04/22 11:13:19;;;;;;;4.90;2.67;;;18.60;62.00;;;;;;5063193;28;20716;-46
2023/04/22 11:15:55;;;;;;;3.17;2.40;;;18.70;62.10;;;;;;5040359;28;20209;-47
2023/04/22 11:18:32;;;;;;;3.03;2.73;;;18.70;62.00;;;;;;5067273;28;20193;-47
2023/04/22 11:21:15;;;;;;;3.20;2.40;;;18.70;62.10;;;;;;5082795;28;20202;-47
2023/04/22 11:23:53;;;;;;;2.80;2.60;;;18.70;62.10;;;;;;5059538;28;20305;-47
2023/04/22 11:26:37;;;;;;;3.77;2.83;;;18.70;62.10;;;;;;5060239;28;20657;-45
2023/04/22 11:29:17;;;;;;;3.13;2.70;;;18.70;62.20;;;;;;5072600;28;20201;-45
2023/04/22 11:31:49;;;;;;;2.77;2.50;;;18.80;62.10;;;;;;5080238;28;20205;-46
2023/04/22 11:34:22;;;;;;;3.57;2.33;;;18.80;62.20;;;;;;5082040;28;20274;-47
2023/04/22 11:36:56;;;;;;;4.10;2.50;;;18.80;62.20;;;;;;5084601;28;20213;-46
2023/04/22 11:39:36;;;;;;;2.53;2.20;;;18.80;62.10;;;;;;5082707;28;20664;-47
2023/04/22 11:42:21;;;;;;;4.10;2.33;;;18.80;62.20;;;;;;5059831;28;20267;-45
2023/04/22 11:44:50;;;;;;;3.70;2.30;;;18.80;62.00;;;;;;5076169;28;20197;-47
2023/04/22 11:47:22;;;;;;;3.70;2.37;;;18.80;62.10;;;;;;5074193;28;20204;-46
2023/04/22 11:50:21;;;;;;;3.67;2.70;;;18.80;62.10;;;;;;5071491;28;20220;-49
2023/04/22 11:53:04;;;;;;;4.13;2.57;;;18.90;62.30;;;;;;5061016;28;20588;-46
2023/04/22 11:55:38;;;;;;;3.80;2.67;;;18.80;62.20;;;;;;5037344;28;20283;-46
2023/04/22 11:58:19;;;;;;;3.60;2.67;;;18.90;62.10;;;;;;5067328;28;20203;-47
2023/04/22 12:00:50;;;;;;;2.60;2.40;;;18.90;62.20;;;;;;5065982;28;20212;-46
2023/04/22 12:03:36;;;;;;;2.47;2.27;;;18.90;62.10;;;;;;5075938;28;20225;-46
2023/04/22 12:06:05;;;;;;;3.27;2.30;;;19.00;62.20;;;;;;5069733;28;20654;-46
2023/04/22 12:08:55;;;;;;;2.50;2.30;;;18.90;62.10;;;;;;5053293;28;20233;-46
2023/04/22 12:11:24;;;;;;;2.83;2.53;;;18.90;62.10;;;;;;5071372;28;20205;-46
2023/04/22 12:13:55;;;;;;;2.80;2.60;;;18.90;62.00;;;;;;5079277;28;20541;-46
2023/04/22 12:16:24;;;;;;;3.00;2.37;;;18.90;62.00;;;;;;5083659;28;20197;-46
2023/04/22 12:18:55;;;;;;;3.40;2.60;;;19.00;62.00;;;;;;5072563;28;20196;-46
2023/04/22 12:21:43;;;;;;;2.40;2.20;;;19.00;62.10;;;;;;5069783;28;20651;-46
2023/04/22 12:24:10;;;;;;;2.23;2.03;;;19.00;62.00;;;;;;5065949;28;20244;-46
2023/04/22 12:26:42;;;;;;;3.53;2.57;;;19.00;62.00;;;;;;5069885;28;20194;-48
2023/04/22 12:29:13;;;;;;;3.00;2.23;;;19.00;62.00;;;;;;5066809;28;20767;-48
2023/04/22 12:31:43;;;;;;;2.60;2.40;;;19.00;61.90;;;;;;5069342;28;20201;-47
2023/04/22 12:34:20;;;;;;;2.23;2.03;;;19.00;61.90;;;;;;5071303;28;20197;-48
2023/04/22 12:36:55;;;;;;;2.60;2.07;;;19.00;61.90;;;;;;5066551;28;20209;-48
2023/04/22 12:39:24;;;;;;;2.63;2.43;;;19.00;61.90;;;;;;5070118;28;20189;-49
2023/04/22 12:41:53;;;;;;;2.60;2.30;;;19.00;61.90;;;;;;5075021;28;20208;-46
2023/04/22 12:44:25;;;;;;;2.67;2.33;;;19.00;61.90;;;;;;5080631;28;20587;-46
2023/04/22 12:46:55;;;;;;;2.57;2.23;;;19.10;61.90;;;;;;5065805;28;20568;-47
2023/04/22 12:49:26;;;;;;;2.47;2.27;;;19.10;61.90;;;;;;5087627;28;20568;-46
2023/04/22 12:51:57;;;;;;;2.87;2.20;;;19.10;61.80;;;;;;5078218;28;20191;-46
2023/04/22 12:54:29;;;;;;;2.23;1.90;;;19.10;61.70;;;;;;5073865;28;20186;-48
2023/04/22 12:57:01;;;;;;;2.03;1.87;;;19.10;61.90;;;;;;5059242;28;20229;-47
2023/04/22 12:59:29;;;;;;;2.67;2.30;;;19.10;61.70;;;;;;5053374;28;20214;-47
2023/04/22 13:01:56;;;;;;;2.00;1.90;;;19.10;61.80;;;;;;5054348;28;20729;-49
2023/04/22 13:04:26;;;;;;;3.33;2.10;;;19.10;61.80;;;;;;5051208;28;20617;-49
2023/04/22 13:06:57;;;;;;;2.27;1.90;;;19.10;61.70;;;;;;5087113;28;20614;-46
2023/04/22 13:09:27;;;;;;;2.43;1.90;;;19.10;61.70;;;;;;5078433;28;20194;-46
2023/04/22 13:11:57;;;;;;;2.97;2.03;;;19.10;61.70;;;;;;5080715;28;20557;-47